Time;durP1;ratioP1;P1;durP2;ratioP2;P2;SDS_P1;SDS_P2;PMS_P1;PMS_P2;Temp;Humidity;BMP_temperature;BMP_pressure;BME280_temperature;BME280_humidity;BME280_pressure;Samples;Min_cycle;Max_cycle;Signal;HPM_P1;HPM_P2
2022/01/31 00:02:14;;;;;;;;;12.75;8.25;;;;;5.36;86.15;101205.28;4856146;29;11694;-69
2022/01/31 00:04:44;;;;;;;;;15.50;13.50;;;;;5.34;87.03;101194.69;4855607;29;12294;-71
2022/01/31 00:07:11;;;;;;;;;14.25;13.00;;;;;5.31;88.31;101188.75;4853954;29;11664;-69
2022/01/31 00:09:40;;;;;;;;;19.00;15.50;;;;;5.29;88.71;101169.28;4853118;29;11591;-71
2022/01/31 00:12:10;;;;;;;;;15.00;15.00;;;;;5.28;89.26;101156.84;4855043;29;11601;-71
2022/01/31 00:17:07;;;;;;;;;12.00;12.00;;;;;5.24;90.22;101137.50;4855808;29;11630;-71
2022/01/31 00:19:36;;;;;;;;;20.75;14.50;;;;;5.22;90.53;101134.13;4853712;29;11606;-72
2022/01/31 00:22:07;;;;;;;;;12.50;11.00;;;;;5.19;91.15;101137.09;4854739;29;11750;-70
2022/01/31 00:24:34;;;;;;;;;14.75;12.75;;;;;5.20;91.61;101125.34;4854643;29;11682;-72
2022/01/31 00:27:06;;;;;;;;;11.75;10.75;;;;;5.20;92.34;101109.25;4855147;29;11664;-71
2022/01/31 00:29:33;;;;;;;;;15.25;11.00;;;;;5.18;92.60;101097.81;4853784;29;11677;-71
2022/01/31 00:31:59;;;;;;;;;11.00;11.00;;;;;5.11;93.01;101088.69;4854177;29;11669;-70
2022/01/31 00:34:26;;;;;;;;;14.00;11.50;;;;;5.14;93.72;101080.31;4853388;29;11658;-71
2022/01/31 00:36:54;;;;;;;;;12.50;10.75;;;;;5.10;93.83;101071.72;4854181;29;12403;-72
2022/01/31 00:39:20;;;;;;;;;7.00;7.00;;;;;5.11;94.19;101067.22;4853879;29;11669;-71
2022/01/31 00:41:47;;;;;;;;;11.25;9.50;;;;;5.12;94.67;101050.97;4854073;29;11595;-71
2022/01/31 00:44:19;;;;;;;;;9.50;9.50;;;;;5.13;95.19;101049.13;4855150;29;11646;-71
2022/01/31 00:46:56;;;;;;;;;14.75;11.75;;;;;5.10;95.53;101047.56;4838132;29;11603;-71
2022/01/31 00:49:50;;;;;;;;;11.25;6.25;;;;;5.12;95.63;101028.63;4853315;29;11618;-71
2022/01/31 00:52:09;;;;;;;;;7.50;7.50;;;;;5.11;96.35;101011.69;4869237;29;11614;-72
2022/01/31 00:54:36;;;;;;;;;11.00;10.00;;;;;5.09;96.45;100994.06;4854535;29;12318;-70
2022/01/31 00:57:02;;;;;;;;;9.25;7.00;;;;;5.08;96.65;100992.38;4854589;29;11631;-71
2022/01/31 00:59:29;;;;;;;;;10.00;9.00;;;;;5.01;96.74;100973.34;4852514;29;11609;-69
2022/01/31 01:01:56;;;;;;;;;7.50;7.00;;;;;5.04;97.37;100966.84;4854709;29;11561;-71
2022/01/31 01:04:22;;;;;;;;;9.25;9.00;;;;;5.02;97.72;100948.22;4854756;29;11593;-71
2022/01/31 01:06:49;;;;;;;;;11.75;7.00;;;;;5.08;98.29;100936.03;4839124;29;11599;-70
2022/01/31 01:09:15;;;;;;;;;11.75;10.00;;;;;5.05;98.24;100923.75;4853187;29;11649;-69
2022/01/31 01:11:42;;;;;;;;;7.25;7.25;;;;;5.11;98.97;100919.63;4856488;29;11677;-70
2022/01/31 01:14:09;;;;;;;;;12.25;9.50;;;;;5.11;98.93;100903.53;4856968;29;12256;-71
2022/01/31 01:16:35;;;;;;;;;8.00;8.00;;;;;5.07;99.25;100897.63;4856366;29;12369;-71
2022/01/31 01:19:03;;;;;;;;;10.25;8.50;;;;;5.11;99.53;100896.31;4856515;29;11695;-71
2022/01/31 01:21:30;;;;;;;;;7.50;6.75;;;;;5.14;99.69;100879.06;4856994;29;11577;-70
2022/01/31 01:23:56;;;;;;;;;5.25;5.25;;;;;5.12;100.00;100873.00;4857228;29;11580;-71
2022/01/31 01:26:23;;;;;;;;;9.25;5.00;;;;;5.13;100.00;100862.13;4857064;29;11680;-70
2022/01/31 01:28:53;;;;;;;;;3.75;3.75;;;;;5.19;100.00;100858.81;4854510;29;11279;-70
2022/01/31 01:31:20;;;;;;;;;9.75;3.50;;;;;5.21;100.00;100846.09;4857232;29;12105;-70
2022/01/31 01:33:47;;;;;;;;;4.50;3.25;;;;;5.21;100.00;100843.44;4857821;29;11584;-70
2022/01/31 01:36:14;;;;;;;;;7.00;4.25;;;;;5.28;100.00;100843.66;4855664;29;11061;-71
2022/01/31 01:38:41;;;;;;;;;6.00;6.00;;;;;5.32;100.00;100838.81;4902922;23;11312;-70
2022/01/31 01:41:07;;;;;;;;;7.25;7.25;;;;;5.35;100.00;100827.75;4931668;29;11535;-70
2022/01/31 01:43:34;;;;;;;;;3.00;3.00;;;;;5.39;100.00;100829.97;4932988;29;11259;-70
2022/01/31 01:46:01;;;;;;;;;7.50;6.50;;;;;5.44;100.00;100822.28;4932348;29;11529;-70
2022/01/31 01:48:31;;;;;;;;;4.75;4.00;;;;;5.54;100.00;100806.09;4928413;29;11552;-71
2022/01/31 01:50:58;;;;;;;;;3.00;3.00;;;;;5.68;100.00;100808.19;4928293;29;11282;-69
2022/01/31 01:53:25;;;;;;;;;5.75;4.25;;;;;5.75;100.00;100798.50;4911204;29;11209;-72
2022/01/31 01:55:53;;;;;;;;;5.75;4.75;;;;;5.85;100.00;100793.00;4928965;29;11112;-70
2022/01/31 01:58:26;;;;;;;;;2.75;2.75;;;;;5.91;100.00;100787.03;4912610;29;11865;-71
2022/01/31 02:00:59;;;;;;;;;4.75;3.50;;;;;5.96;100.00;100782.03;4908864;29;10940;-70
2022/01/31 02:03:44;;;;;;;;;2.50;2.00;;;;;6.01;100.00;100774.31;4928581;29;12028;-70
2022/01/31 02:06:12;;;;;;;;;5.75;2.50;;;;;6.08;100.00;100764.59;4927150;29;10997;-71
2022/01/31 02:08:43;;;;;;;;;6.50;4.00;;;;;6.07;100.00;100757.56;4911406;29;10915;-71
2022/01/31 02:11:20;;;;;;;;;4.00;3.50;;;;;6.11;100.00;100768.81;4913893;29;11697;-68
2022/01/31 02:13:49;;;;;;;;;6.00;5.00;;;;;6.08;100.00;100759.22;4910284;29;11276;-68
2022/01/31 02:16:31;;;;;;;;;2.00;2.00;;;;;6.10;100.00;100751.00;4913554;29;11117;-71
2022/01/31 02:19:08;;;;;;;;;1.00;1.00;;;;;6.12;100.00;100740.94;4911136;29;10874;-68
2022/01/31 02:22:11;;;;;;;;;5.00;4.00;;;;;6.17;100.00;100747.50;4912298;29;10897;-70
2022/01/31 02:24:56;;;;;;;;;1.00;1.00;;;;;6.16;99.10;100735.06;4913848;29;10966;-70
2022/01/31 02:27:40;;;;;;;;;4.00;4.00;;;;;6.18;97.84;100746.50;4926374;29;11025;-69
2022/01/31 02:30:12;;;;;;;;;6.00;2.75;;;;;6.19;97.25;100744.66;4911396;29;10861;-70
2022/01/31 02:32:44;;;;;;;;;5.25;5.25;;;;;6.18;97.13;100730.38;4911784;29;11277;-70
2022/01/31 02:35:11;;;;;;;;;2.75;2.75;;;;;6.20;96.45;100732.03;4911490;29;11143;-70
2022/01/31 02:37:39;;;;;;;;;1.25;1.25;;;;;6.22;95.74;100714.78;4911986;29;11037;-68
2022/01/31 02:40:31;;;;;;;;;4.00;1.00;;;;;6.26;95.76;100717.97;4910799;29;10849;-70
2022/01/31 02:43:02;;;;;;;;;5.75;2.75;;;;;6.24;94.99;100701.16;4927414;29;10882;-70
2022/01/31 02:45:30;;;;;;;;;6.75;5.75;;;;;6.22;94.43;100708.56;4911912;29;11564;-69
2022/01/31 02:48:00;;;;;;;;;2.00;1.00;;;;;6.25;94.44;100713.59;4911464;29;10948;-71
2022/01/31 02:50:31;;;;;;;;;2.25;2.25;;;;;6.25;94.36;100705.53;4911571;29;10786;-70
2022/01/31 02:55:45;;;;;;;;;1.00;1.00;;;;;6.32;92.84;100701.19;4910791;29;10918;-70
2022/01/31 02:58:15;;;;;;;;;1.50;1.00;;;;;6.34;92.65;100693.78;4912456;29;10920;-70
2022/01/31 03:00:43;;;;;;;;;4.50;1.00;;;;;6.36;91.73;100692.63;4910334;29;10723;-70
2022/01/31 03:03:19;;;;;;;;;4.50;2.75;;;;;6.33;90.73;100686.72;4910794;29;10877;-69
2022/01/31 03:05:46;;;;;;;;;2.00;0.50;;;;;6.30;90.09;100687.06;4927060;29;10839;-68
2022/01/31 03:08:14;;;;;;;;;2.25;1.00;;;;;6.33;89.25;100698.31;4909233;29;10875;-70
2022/01/31 03:10:41;;;;;;;;;1.00;1.00;;;;;6.35;88.82;100690.09;4927112;29;10868;-72
2022/01/31 03:13:09;;;;;;;;;0.75;0.75;;;;;6.34;88.82;100691.94;4911327;29;10802;-70
2022/01/31 03:15:42;;;;;;;;;4.50;2.00;;;;;6.30;88.30;100700.50;4909602;29;10919;-70
2022/01/31 03:18:09;;;;;;;;;1.50;0.75;;;;;6.28;88.21;100681.84;4911971;29;11528;-70
2022/01/31 03:20:36;;;;;;;;;1.25;1.25;;;;;6.34;88.16;100691.09;4909817;29;10882;-70
2022/01/31 03:23:03;;;;;;;;;4.00;1.00;;;;;6.30;87.14;100679.00;4911017;29;10915;-70
2022/01/31 03:25:30;;;;;;;;;4.50;3.00;;;;;6.35;86.89;100687.41;4910415;29;10731;-71
2022/01/31 03:27:56;;;;;;;;;4.00;1.00;;;;;6.35;85.95;100672.13;4927189;29;10865;-69
2022/01/31 03:30:24;;;;;;;;;4.00;1.50;;;;;6.35;85.08;100666.72;4911078;29;11418;-68
2022/01/31 03:32:54;;;;;;;;;5.00;2.00;;;;;6.37;84.67;100661.19;4910947;29;10930;-68
2022/01/31 03:35:23;;;;;;;;;0.00;0.00;;;;;6.38;84.58;100663.72;4909931;29;10958;-68
2022/01/31 03:37:49;;;;;;;;;1.00;1.00;;;;;6.41;84.06;100668.75;4910860;29;10893;-71
2022/01/31 03:40:21;;;;;;;;;2.25;1.00;;;;;6.41;84.17;100658.00;4910689;29;10685;-69
2022/01/31 03:42:49;;;;;;;;;3.00;2.50;;;;;6.38;84.05;100630.59;4910150;29;10830;-68
2022/01/31 03:45:16;;;;;;;;;1.75;1.00;;;;;6.40;82.87;100640.19;4911325;29;10900;-68
2022/01/31 03:47:44;;;;;;;;;1.75;1.75;;;;;6.41;82.94;100649.94;4926411;29;11372;-72
2022/01/31 03:50:14;;;;;;;;;2.75;2.75;;;;;6.40;82.73;100636.66;4923756;29;10823;-70
2022/01/31 03:52:42;;;;;;;;;3.25;2.00;;;;;6.38;82.67;100623.38;4910296;29;11060;-67
2022/01/31 03:55:13;;;;;;;;;2.00;1.75;;;;;6.43;81.88;100636.31;4910765;29;10802;-70
2022/01/31 03:57:44;;;;;;;;;1.75;1.00;;;;;6.42;81.57;100632.78;4910401;29;10854;-70
2022/01/31 04:00:27;;;;;;;;;3.50;1.50;;;;;6.45;81.19;100629.78;4910156;29;10790;-69
2022/01/31 04:02:54;;;;;;;;;2.00;2.00;;;;;6.48;81.19;100613.31;4911763;29;10803;-68
2022/01/31 04:05:21;;;;;;;;;8.25;2.00;;;;;6.43;80.86;100626.41;4911620;29;10686;-68
2022/01/31 04:07:47;;;;;;;;;2.00;2.00;;;;;6.49;80.65;100606.09;4910559;29;10795;-71
2022/01/31 04:10:13;;;;;;;;;3.50;1.75;;;;;6.47;80.74;100606.25;4910691;29;11602;-69
2022/01/31 04:12:40;;;;;;;;;5.00;2.25;;;;;6.49;80.59;100608.78;4911596;29;11599;-69
2022/01/31 04:15:07;;;;;;;;;1.00;1.00;;;;;6.44;81.05;100589.59;4911842;29;10702;-68
2022/01/31 04:17:35;;;;;;;;;3.00;2.00;;;;;6.47;80.39;100600.88;4912131;29;10678;-69
2022/01/31 04:20:01;;;;;;;;;10.00;4.00;;;;;6.45;80.11;100599.38;4911271;29;10919;-69
2022/01/31 04:22:31;;;;;;;;;1.00;1.00;;;;;6.50;79.94;100601.56;4912097;29;10919;-69
2022/01/31 04:25:02;;;;;;;;;1.25;1.25;;;;;6.43;80.32;100594.13;4924640;29;10756;-70
2022/01/31 04:27:33;;;;;;;;;5.50;3.75;;;;;6.45;80.54;100597.53;4912008;29;10768;-69
2022/01/31 04:29:59;;;;;;;;;2.75;1.50;;;;;6.44;80.55;100600.34;4909736;29;10723;-69
2022/01/31 04:32:26;;;;;;;;;6.25;2.75;;;;;6.43;79.95;100586.06;4911226;29;10919;-69
2022/01/31 04:34:52;;;;;;;;;0.25;0.25;;;;;6.41;80.87;100588.09;4910850;29;11262;-69
2022/01/31 04:37:19;;;;;;;;;6.00;2.00;;;;;6.44;82.20;100579.72;4911112;29;11504;-68
2022/01/31 04:39:45;;;;;;;;;3.25;3.25;;;;;6.40;82.00;100591.78;4911284;29;10636;-67
2022/01/31 04:42:12;;;;;;;;;5.25;4.50;;;;;6.41;83.26;100571.13;4911941;29;10892;-69
2022/01/31 04:44:39;;;;;;;;;2.00;1.75;;;;;6.36;83.63;100603.88;4911668;29;11153;-69
2022/01/31 04:47:05;;;;;;;;;0.25;0.25;;;;;6.11;83.73;100607.56;4912677;29;10874;-71
2022/01/31 04:49:34;;;;;;;;;1.75;1.00;;;;;5.75;84.72;100623.91;4915313;29;11501;-70
2022/01/31 04:52:00;;;;;;;;;3.50;1.00;;;;;5.67;85.78;100607.75;4915144;29;10741;-71
2022/01/31 04:54:27;;;;;;;;;1.00;1.00;;;;;5.65;86.96;100595.50;4914851;29;10901;-71
2022/01/31 04:56:53;;;;;;;;;3.00;1.50;;;;;5.61;87.61;100607.56;4914575;29;10770;-70
2022/01/31 04:59:20;;;;;;;;;1.00;1.00;;;;;5.65;88.54;100598.19;4913965;29;10884;-70
2022/01/31 05:01:48;;;;;;;;;3.00;1.50;;;;;5.61;88.84;100596.84;4914026;29;10774;-68
2022/01/31 05:04:15;;;;;;;;;0.25;0.25;;;;;5.59;89.82;100583.56;4913110;29;10869;-70
2022/01/31 05:06:44;;;;;;;;;1.00;1.00;;;;;5.50;90.25;100580.03;4914028;29;11025;-69
2022/01/31 05:09:11;;;;;;;;;2.75;1.50;;;;;5.48;90.68;100549.81;4911308;29;11066;-69
2022/01/31 05:11:38;;;;;;;;;0.50;0.50;;;;;5.51;91.37;100572.81;4914207;29;11017;-69
2022/01/31 05:14:04;;;;;;;;;1.00;1.00;;;;;5.49;91.51;100553.34;4927951;29;10976;-69
2022/01/31 05:16:30;;;;;;;;;4.00;1.00;;;;;5.47;91.71;100545.47;4914715;29;11619;-69
2022/01/31 05:19:01;;;;;;;;;2.75;0.25;;;;;5.49;91.47;100582.88;4913591;29;10797;-70
2022/01/31 05:21:28;;;;;;;;;4.25;1.50;;;;;5.52;91.38;100577.19;4914022;29;11618;-70
2022/01/31 05:23:54;;;;;;;;;1.00;1.00;;;;;5.48;92.05;100560.56;4914222;29;11069;-69
2022/01/31 05:26:21;;;;;;;;;2.00;2.00;;;;;5.51;92.55;100576.34;4913209;29;10865;-69
2022/01/31 05:28:47;;;;;;;;;3.50;1.75;;;;;5.57;93.08;100578.38;4912619;29;11089;-69
2022/01/31 05:31:14;;;;;;;;;5.00;0.00;;;;;5.56;92.98;100565.94;4913685;29;10964;-70
2022/01/31 05:33:40;;;;;;;;;3.00;1.00;;;;;5.61;92.78;100560.06;4914074;29;11006;-70
2022/01/31 05:36:07;;;;;;;;;4.00;2.00;;;;;5.64;92.86;100564.28;4914123;29;11090;-68
2022/01/31 05:38:37;;;;;;;;;2.50;1.00;;;;;5.58;92.50;100552.34;4912768;29;11034;-69
2022/01/31 05:41:06;;;;;;;;;0.50;0.50;;;;;5.59;93.03;100563.94;4912548;29;11567;-70
2022/01/31 05:43:34;;;;;;;;;1.75;1.75;;;;;5.57;93.32;100550.69;4913393;29;11032;-69
2022/01/31 05:46:00;;;;;;;;;2.00;1.00;;;;;5.55;93.71;100552.69;4914019;29;10868;-70
2022/01/31 05:48:27;;;;;;;;;2.50;0.00;;;;;5.51;93.08;100557.53;4913168;29;11070;-69
2022/01/31 05:50:53;;;;;;;;;2.00;2.00;;;;;5.50;92.73;100553.19;4913541;29;10999;-69
2022/01/31 05:53:21;;;;;;;;;0.75;0.75;;;;;5.55;92.83;100560.75;4914279;29;11135;-70
2022/01/31 05:55:48;;;;;;;;;4.75;2.00;;;;;5.57;93.16;100564.94;4913505;29;11784;-69
2022/01/31 05:58:14;;;;;;;;;6.75;2.75;;;;;5.59;92.40;100542.44;4914283;29;11061;-70
2022/01/31 06:00:41;;;;;;;;;2.50;1.00;;;;;5.55;92.45;100564.25;4914619;29;11135;-68
2022/01/31 06:03:07;;;;;;;;;2.00;1.75;;;;;5.53;91.75;100552.84;4914355;29;11228;-69
2022/01/31 06:05:34;;;;;;;;;2.00;2.00;;;;;5.55;92.58;100552.69;4914032;29;10935;-68
2022/01/31 06:08:00;;;;;;;;;4.00;2.00;;;;;5.50;92.42;100544.28;4912345;29;11180;-69
2022/01/31 06:10:27;;;;;;;;;1.25;1.00;;;;;5.51;92.85;100536.06;4911980;29;11629;-69
2022/01/31 06:12:55;;;;;;;;;0.25;0.25;;;;;5.44;92.63;100540.38;4912388;29;11037;-69
2022/01/31 06:15:22;;;;;;;;;0.25;0.25;;;;;5.44;92.25;100543.06;4913874;29;11191;-68
2022/01/31 06:17:48;;;;;;;;;0.75;0.75;;;;;5.47;92.01;100542.78;4913554;29;11113;-68
2022/01/31 06:20:15;;;;;;;;;0.50;0.50;;;;;5.49;92.48;100550.66;4913033;29;11031;-71
2022/01/31 06:22:46;;;;;;;;;2.00;1.00;;;;;5.52;91.41;100532.38;4913690;29;11038;-69
2022/01/31 06:25:13;;;;;;;;;2.25;1.50;;;;;5.52;91.63;100531.53;4912940;29;11133;-71
2022/01/31 06:27:42;;;;;;;;;1.50;0.75;;;;;5.46;91.88;100527.66;4913193;29;11158;-70
2022/01/31 06:30:09;;;;;;;;;1.00;1.00;;;;;5.45;92.43;100528.69;4927195;29;11026;-69
2022/01/31 06:32:36;;;;;;;;;3.50;1.00;;;;;5.48;92.20;100540.94;4924627;29;11056;-71
2022/01/31 06:35:04;;;;;;;;;1.00;1.00;;;;;5.45;92.61;100539.41;4910924;29;10962;-70
2022/01/31 06:37:30;;;;;;;;;1.00;0.00;;;;;5.50;93.15;100525.50;4911756;29;11287;-70
2022/01/31 06:39:57;;;;;;;;;2.25;2.00;;;;;5.46;92.83;100524.16;4913094;29;10861;-69
2022/01/31 06:42:24;;;;;;;;;2.50;2.00;;;;;5.47;93.44;100515.09;4913398;29;10945;-72
2022/01/31 06:44:50;;;;;;;;;1.00;1.00;;;;;5.45;93.64;100501.84;4912400;29;10863;-70
2022/01/31 06:47:18;;;;;;;;;3.50;1.75;;;;;5.49;92.51;100538.06;4912938;29;11059;-70
2022/01/31 06:49:45;;;;;;;;;2.00;1.00;;;;;5.52;92.67;100542.28;4912503;29;10997;-70
2022/01/31 06:52:12;;;;;;;;;5.00;1.00;;;;;5.51;92.74;100529.84;4911451;29;10951;-70
2022/01/31 06:54:38;;;;;;;;;4.00;2.00;;;;;5.62;92.32;100539.44;4911857;29;11320;-69
2022/01/31 06:57:05;;;;;;;;;1.50;1.25;;;;;5.55;92.43;100540.09;4912914;29;11003;-70
2022/01/31 06:59:32;;;;;;;;;3.00;1.25;;;;;5.56;92.32;100533.72;4911738;29;10936;-69
2022/01/31 07:02:02;;;;;;;;;2.25;2.25;;;;;5.60;92.32;100519.97;4912554;29;11195;-69
2022/01/31 07:04:28;;;;;;;;;2.50;1.50;;;;;5.57;91.80;100527.34;4912734;29;11101;-70
2022/01/31 07:06:55;;;;;;;;;5.25;3.50;;;;;5.65;91.80;100537.25;4911498;29;10877;-70
2022/01/31 07:09:22;;;;;;;;;3.50;3.00;;;;;5.65;91.84;100523.84;4910236;29;10912;-70
2022/01/31 07:11:51;;;;;;;;;6.75;3.00;;;;;5.65;92.47;100541.78;4911794;29;10959;-71
2022/01/31 07:14:30;;;;;;;;;1.75;1.75;;;;;5.62;91.81;100523.31;4911937;29;10888;-70
2022/01/31 07:16:59;;;;;;;;;0.25;0.25;;;;;5.62;91.62;100534.06;4910188;29;10805;-71
2022/01/31 07:19:28;;;;;;;;;3.00;1.00;;;;;5.67;91.99;100559.41;4911992;29;11016;-70
2022/01/31 07:21:55;;;;;;;;;5.25;2.25;;;;;5.71;90.90;100508.94;4910816;29;10846;-71
2022/01/31 07:24:25;;;;;;;;;4.00;3.50;;;;;5.70;90.08;100521.50;4911335;29;10966;-70
2022/01/31 07:26:52;;;;;;;;;1.00;1.00;;;;;5.74;90.53;100522.84;4926907;29;11686;-69
2022/01/31 07:29:19;;;;;;;;;6.25;3.00;;;;;5.88;89.46;100530.25;4911602;29;10974;-71
2022/01/31 07:31:46;;;;;;;;;4.75;4.75;;;;;5.87;88.62;100542.00;4910766;29;10974;-70
2022/01/31 07:34:15;;;;;;;;;6.75;5.00;;;;;6.08;87.89;100527.28;4912297;29;10980;-72
2022/01/31 07:36:42;;;;;;;;;1.00;1.00;;;;;6.12;87.73;100548.25;4908233;29;11590;-70
2022/01/31 07:39:09;;;;;;;;;1.75;1.00;;;;;5.95;88.21;100532.28;4910168;29;10744;-72
2022/01/31 07:41:39;;;;;;;;;4.00;1.00;;;;;5.91;88.87;100536.31;4907930;29;10790;-71
2022/01/31 07:44:06;;;;;;;;;5.00;1.75;;;;;5.83;88.42;100564.84;4905212;29;10688;-70
2022/01/31 07:46:33;;;;;;;;;2.25;2.00;;;;;5.84;88.39;100539.66;4908338;29;11548;-70
2022/01/31 07:48:59;;;;;;;;;4.75;2.00;;;;;5.79;88.86;100550.06;4904376;29;11127;-72
2022/01/31 07:51:26;;;;;;;;;3.00;2.00;;;;;5.81;88.59;100544.50;4917729;29;10876;-70
2022/01/31 07:53:53;;;;;;;;;3.00;2.00;;;;;5.81;87.28;100547.19;4914928;29;10897;-69
2022/01/31 07:56:20;;;;;;;;;2.00;1.00;;;;;5.82;87.86;100562.31;4908047;29;10863;-72
2022/01/31 07:58:47;;;;;;;;;6.00;4.00;;;;;5.86;87.47;100566.34;4903211;29;11468;-70
2022/01/31 08:01:14;;;;;;;;;6.00;5.00;;;;;5.90;86.80;100597.28;4905436;29;11052;-71
2022/01/31 08:03:41;;;;;;;;;5.75;3.50;;;;;5.84;87.06;100555.78;4910428;29;10850;-72
2022/01/31 08:06:07;;;;;;;;;5.50;2.00;;;;;5.84;86.19;100574.56;4900210;29;11748;-71
2022/01/31 08:08:35;;;;;;;;;2.25;2.25;;;;;5.82;86.12;100565.84;4902809;29;10968;-70
2022/01/31 08:11:03;;;;;;;;;3.25;2.50;;;;;5.75;86.83;100545.19;4901641;29;10950;-72
2022/01/31 08:13:31;;;;;;;;;9.50;5.25;;;;;5.77;87.54;100599.56;4901708;29;11118;-71
2022/01/31 08:18:43;;;;;;;;;3.50;3.50;;;;;5.77;87.94;100596.91;4901708;29;11161;-71
2022/01/31 08:21:12;;;;;;;;;4.00;2.00;;;;;5.76;87.36;100597.91;4906522;29;11038;-71
2022/01/31 08:23:39;;;;;;;;;5.25;3.25;;;;;5.75;88.48;100590.84;4906989;29;11976;-71
2022/01/31 08:26:12;;;;;;;;;7.50;4.75;;;;;5.75;89.21;100596.22;4921948;29;11980;-71
2022/01/31 08:28:42;;;;;;;;;6.00;3.50;;;;;5.76;88.93;100576.41;4908171;29;11214;-72
2022/01/31 08:31:20;;;;;;;;;4.00;1.00;;;;;5.76;88.50;100592.53;4911716;29;10905;-72
2022/01/31 08:36:17;;;;;;;;;3.00;3.00;;;;;5.71;88.76;100619.03;4914399;29;11536;-71
2022/01/31 08:38:45;;;;;;;;;2.25;2.25;;;;;5.71;89.38;100610.97;4914833;29;11200;-72
2022/01/31 08:41:13;;;;;;;;;11.75;6.00;;;;;5.74;88.17;100605.28;4933363;23;11047;-69
2022/01/31 08:43:40;;;;;;;;;12.75;3.25;;;;;5.74;88.55;100613.34;4891881;29;11371;-71
2022/01/31 08:46:09;;;;;;;;;7.25;6.25;;;;;5.77;87.30;100626.44;4904911;29;11287;-71
2022/01/31 08:48:36;;;;;;;;;3.50;1.75;;;;;5.83;88.72;100625.78;4901358;29;11278;-70
2022/01/31 08:51:06;;;;;;;;;12.00;4.00;;;;;5.82;87.51;100624.94;4893656;29;11265;-69
2022/01/31 08:53:33;;;;;;;;;7.00;5.25;;;;;5.80;86.66;100640.38;4892724;29;11179;-70
2022/01/31 08:56:08;;;;;;;;;4.75;4.00;;;;;5.89;87.19;100641.22;4890489;29;11040;-70
2022/01/31 08:58:41;;;;;;;;;2.50;2.50;;;;;5.86;86.99;100655.84;4888106;29;11171;-69
2022/01/31 09:01:09;;;;;;;;;4.25;2.00;;;;;5.79;87.07;100662.03;4885554;29;11114;-70
2022/01/31 09:06:10;;;;;;;;;6.00;6.00;;;;;5.65;87.07;100652.72;4890957;29;11184;-69
2022/01/31 09:08:37;;;;;;;;;3.25;3.25;;;;;5.70;87.37;100653.13;4888283;29;11570;-70
2022/01/31 09:11:04;;;;;;;;;8.25;3.50;;;;;5.70;86.28;100645.06;4889314;29;11360;-70
2022/01/31 09:13:32;;;;;;;;;6.00;5.00;;;;;5.68;85.84;100668.53;4890967;29;11140;-69
2022/01/31 09:15:59;;;;;;;;;12.00;5.75;;;;;5.75;86.10;100633.81;4893357;29;12044;-70
2022/01/31 09:18:26;;;;;;;;;8.50;5.00;;;;;5.70;85.36;100671.91;4890920;29;11591;-70
2022/01/31 09:20:53;;;;;;;;;7.25;7.25;;;;;5.71;86.21;100673.59;4890582;29;11462;-70
2022/01/31 09:23:19;;;;;;;;;5.00;3.00;;;;;5.74;86.06;100642.88;4890388;29;11236;-69
2022/01/31 09:25:47;;;;;;;;;11.00;5.25;;;;;5.77;86.45;100675.63;4889190;29;11134;-70
2022/01/31 09:28:15;;;;;;;;;13.00;7.50;;;;;5.70;85.90;100668.34;4904280;29;11269;-70
2022/01/31 09:30:43;;;;;;;;;9.00;7.00;;;;;5.68;85.83;100714.19;4890304;29;11198;-70
2022/01/31 09:33:10;;;;;;;;;12.50;7.00;;;;;5.72;86.73;100712.88;4885434;29;11590;-69
2022/01/31 09:35:38;;;;;;;;;9.25;6.50;;;;;5.72;86.88;100704.81;4887672;29;11710;-70
2022/01/31 09:38:05;;;;;;;;;5.75;5.50;;;;;5.71;86.19;100721.09;4887052;29;11333;-69
2022/01/31 09:40:32;;;;;;;;;10.75;8.25;;;;;5.78;86.03;100724.81;4886614;29;11632;-70
2022/01/31 09:48:41;;;;;;;;;7.75;5.50;;;;;5.79;86.44;100732.72;4898030;29;11323;-70
2022/01/31 09:51:09;;;;;;;;;9.50;6.00;;;;;5.81;86.46;100754.03;4883971;29;11645;-70
2022/01/31 09:53:45;;;;;;;;;10.25;6.75;;;;;5.86;86.30;100725.69;4887112;29;11571;-70
2022/01/31 09:56:18;;;;;;;;;6.00;4.25;;;;;5.80;85.47;100741.63;4887722;29;11898;-70
2022/01/31 09:58:45;;;;;;;;;8.00;5.00;;;;;5.84;85.17;100751.03;4888366;29;11315;-70
2022/01/31 10:01:39;;;;;;;;;9.00;2.25;;;;;5.82;84.52;100743.13;4885613;29;12090;-70
2022/01/31 10:04:14;;;;;;;;;5.25;4.25;;;;;5.85;83.71;100736.59;4886450;29;11133;-70
2022/01/31 10:06:43;;;;;;;;;9.75;6.50;;;;;5.92;83.85;100761.00;4886709;29;11018;-69
2022/01/31 10:09:14;;;;;;;;;2.00;2.00;;;;;5.88;83.91;100763.97;4887795;29;11066;-69
2022/01/31 10:11:50;;;;;;;;;7.50;4.00;;;;;5.87;84.07;100810.66;4887766;29;11042;-69
2022/01/31 10:17:27;;;;;;;;;6.50;2.00;;;;;5.94;83.45;100804.66;4890990;29;11742;-73
2022/01/31 10:20:18;;;;;;;;;8.00;6.50;;;;;5.97;83.45;100799.00;4890881;29;11212;-71
2022/01/31 10:22:46;;;;;;;;;6.25;6.00;;;;;5.96;83.48;100808.91;4873446;29;11207;-70
2022/01/31 10:25:19;;;;;;;;;6.00;4.00;;;;;5.89;84.13;100823.94;4886998;29;11052;-71
2022/01/31 10:28:15;;;;;;;;;5.00;2.75;;;;;5.88;84.41;100809.66;4885255;29;11130;-71
2022/01/31 10:30:43;;;;;;;;;8.25;3.50;;;;;5.91;85.05;100821.09;4886076;29;11128;-70
2022/01/31 10:33:10;;;;;;;;;6.50;6.00;;;;;5.90;85.59;100816.75;4886638;29;11365;-69
2022/01/31 10:35:39;;;;;;;;;5.00;4.50;;;;;5.93;85.53;100811.03;4886439;29;11910;-69
2022/01/31 10:38:14;;;;;;;;;6.50;6.00;;;;;5.84;86.97;100827.09;4886805;29;11121;-70
2022/01/31 10:50:46;;;;;;;;;7.75;4.50;;;;;5.79;89.03;100833.94;4888427;29;11208;-69
2022/01/31 10:53:13;;;;;;;;;4.50;4.50;;;;;5.77;90.22;100849.38;4886165;29;11269;-69
2022/01/31 10:55:40;;;;;;;;;11.25;5.75;;;;;5.79;90.34;100842.84;4898679;29;11089;-69
2022/01/31 10:58:10;;;;;;;;;12.00;4.00;;;;;5.76;91.31;100861.13;4887206;29;11593;-70
2022/01/31 11:00:39;;;;;;;;;10.00;4.75;;;;;5.68;90.27;100875.31;4884969;29;11425;-70
2022/01/31 11:03:29;;;;;;;;;10.75;6.00;;;;;5.70;91.83;100872.47;4886577;29;11591;-69
2022/01/31 11:05:56;;;;;;;;;15.25;8.00;;;;;5.67;92.18;100865.59;4887253;29;11667;-69
2022/01/31 11:08:22;;;;;;;;;5.50;5.00;;;;;5.67;92.33;100867.44;4895691;29;11088;-69
2022/01/31 11:10:49;;;;;;;;;10.25;7.75;;;;;5.66;92.17;100873.81;4886348;29;11130;-68
2022/01/31 11:13:17;;;;;;;;;9.75;6.75;;;;;5.63;91.68;100876.81;4887628;29;11290;-69
2022/01/31 11:15:44;;;;;;;;;8.75;5.00;;;;;5.68;92.25;100848.47;4886470;29;11203;-68
2022/01/31 11:18:13;;;;;;;;;6.00;6.00;;;;;5.64;91.80;100889.22;4886082;29;12029;-69
2022/01/31 11:20:43;;;;;;;;;6.00;6.00;;;;;5.68;92.32;100877.16;4885502;29;12145;-69
2022/01/31 11:23:12;;;;;;;;;8.50;6.50;;;;;5.62;92.48;100878.66;4884564;29;11148;-68
2022/01/31 11:25:42;;;;;;;;;5.00;5.00;;;;;5.65;93.00;100883.69;4887890;29;11349;-70
2022/01/31 11:28:10;;;;;;;;;9.25;7.00;;;;;5.63;93.30;100891.06;4902042;29;11415;-69
2022/01/31 11:30:36;;;;;;;;;7.00;5.25;;;;;5.67;94.71;100892.44;4889940;29;11100;-69
2022/01/31 11:33:09;;;;;;;;;10.00;7.00;;;;;5.73;94.91;100877.56;4882117;29;11319;-69
2022/01/31 11:35:36;;;;;;;;;8.25;4.50;;;;;5.68;94.85;100891.44;4888469;29;11549;-70
2022/01/31 11:38:03;;;;;;;;;7.00;6.00;;;;;5.62;94.48;100896.59;4883148;29;11162;-71
2022/01/31 11:40:30;;;;;;;;;10.50;6.50;;;;;5.64;94.07;100916.09;4890407;29;11209;-69
2022/01/31 11:42:57;;;;;;;;;9.25;6.00;;;;;5.65;94.42;100923.16;4883004;29;11245;-69
2022/01/31 11:45:32;;;;;;;;;10.50;7.00;;;;;5.67;94.04;100894.28;4886429;29;12315;-69
2022/01/31 11:48:04;;;;;;;;;13.75;8.00;;;;;5.68;94.43;100909.41;4888228;29;11187;-70
2022/01/31 11:50:31;;;;;;;;;8.75;5.25;;;;;5.71;94.74;100928.75;4884545;29;11160;-70
2022/01/31 11:53:01;;;;;;;;;9.25;7.25;;;;;5.72;94.89;100900.06;4885105;29;11202;-70
2022/01/31 11:55:36;;;;;;;;;12.75;8.75;;;;;5.77;94.71;100924.59;4886199;29;11204;-69
2022/01/31 11:58:07;;;;;;;;;8.00;6.50;;;;;5.78;93.99;100935.19;4884999;29;11281;-69
2022/01/31 12:00:38;;;;;;;;;6.50;6.50;;;;;5.83;93.84;100919.44;4887682;29;11620;-69
2022/01/31 12:03:09;;;;;;;;;7.25;5.25;;;;;5.80;93.23;100946.63;4886124;29;11027;-69
2022/01/31 12:05:37;;;;;;;;;17.50;9.50;;;;;5.86;94.11;100943.31;4886900;29;11295;-69
2022/01/31 12:08:33;;;;;;;;;15.50;5.25;;;;;5.87;94.34;100938.78;4883745;29;11763;-68
2022/01/31 12:11:10;;;;;;;;;9.00;4.00;;;;;5.85;93.61;100947.00;4887237;29;11362;-70
2022/01/31 12:13:50;;;;;;;;;6.00;5.50;;;;;5.80;92.97;100960.06;4887002;29;10932;-68